sensor_id;sensor_type;location;lat;lon;timestamp;temperature;humidity
18797;DHT22;9526;52.612;13.300;2022-10-16T00:01:48;14.90;99.90
18797;DHT22;9526;52.612;13.300;2022-10-16T00:04:12;14.90;99.90
18797;DHT22;9526;52.612;13.300;2022-10-16T00:06:37;15.00;99.90
18797;DHT22;9526;52.612;13.300;2022-10-16T00:09:01;15.00;99.90
18797;DHT22;9526;52.612;13.300;2022-10-16T00:11:27;15.00;99.90
18797;DHT22;9526;52.612;13.300;2022-10-16T00:13:54;15.10;99.90
18797;DHT22;9526;52.612;13.300;2022-10-16T00:16:19;15.20;99.90
18797;DHT22;9526;52.612;13.300;2022-10-16T00:18:43;15.20;99.90
18797;DHT22;9526;52.612;13.300;2022-10-16T00:21:08;15.30;99.90
18797;DHT22;9526;52.612;13.300;2022-10-16T00:23:34;15.30;99.90
18797;DHT22;9526;52.612;13.300;2022-10-16T00:26:00;15.30;99.90
18797;DHT22;9526;52.612;13.300;2022-10-16T00:28:24;15.40;99.90
18797;DHT22;9526;52.612;13.300;2022-10-16T00:30:48;15.40;99.90
18797;DHT22;9526;52.612;13.300;2022-10-16T00:33:12;15.50;99.90
18797;DHT22;9526;52.612;13.300;2022-10-16T00:35:35;15.50;99.90
18797;DHT22;9526;52.612;13.300;2022-10-16T00:37:59;15.50;99.90
18797;DHT22;9526;52.612;13.300;2022-10-16T00:40:24;15.60;99.90
18797;DHT22;9526;52.612;13.300;2022-10-16T00:42:47;15.60;99.90
18797;DHT22;9526;52.612;13.300;2022-10-16T00:45:11;15.60;99.90
18797;DHT22;9526;52.612;13.300;2022-10-16T00:47:37;15.60;99.90
18797;DHT22;9526;52.612;13.300;2022-10-16T00:50:06;15.70;99.90
18797;DHT22;9526;52.612;13.300;2022-10-16T00:52:32;15.60;99.90
18797;DHT22;9526;52.612;13.300;2022-10-16T00:54:56;15.60;99.90
18797;DHT22;9526;52.612;13.300;2022-10-16T00:57:22;15.70;99.90
18797;DHT22;9526;52.612;13.300;2022-10-16T00:59:46;15.70;99.90
18797;DHT22;9526;52.612;13.300;2022-10-16T01:02:11;15.70;99.90
18797;DHT22;9526;52.612;13.300;2022-10-16T01:04:38;15.70;99.90
18797;DHT22;9526;52.612;13.300;2022-10-16T01:07:12;15.70;99.90
18797;DHT22;9526;52.612;13.300;2022-10-16T01:09:43;15.70;99.90
18797;DHT22;9526;52.612;13.300;2022-10-16T01:12:17;15.70;99.90
18797;DHT22;9526;52.612;13.300;2022-10-16T01:14:51;15.70;99.90
18797;DHT22;9526;52.612;13.300;2022-10-16T01:17:20;15.70;99.90
18797;DHT22;9526;52.612;13.300;2022-10-16T01:20:08;15.80;99.90
18797;DHT22;9526;52.612;13.300;2022-10-16T01:22:40;15.80;99.90
18797;DHT22;9526;52.612;13.300;2022-10-16T01:25:14;15.80;99.90
18797;DHT22;9526;52.612;13.300;2022-10-16T01:27:43;15.80;99.90
18797;DHT22;9526;52.612;13.300;2022-10-16T01:30:13;15.80;99.90
18797;DHT22;9526;52.612;13.300;2022-10-16T01:32:41;15.80;99.90
18797;DHT22;9526;52.612;13.300;2022-10-16T01:35:11;15.80;99.90
18797;DHT22;9526;52.612;13.300;2022-10-16T01:37:41;15.80;99.90
18797;DHT22;9526;52.612;13.300;2022-10-16T01:40:13;15.80;99.90
18797;DHT22;9526;52.612;13.300;2022-10-16T01:42:44;15.80;99.90
18797;DHT22;9526;52.612;13.300;2022-10-16T01:45:13;15.80;99.90
18797;DHT22;9526;52.612;13.300;2022-10-16T01:47:41;15.80;99.90
18797;DHT22;9526;52.612;13.300;2022-10-16T01:50:07;15.80;99.90
18797;DHT22;9526;52.612;13.300;2022-10-16T01:52:32;15.90;99.90
18797;DHT22;9526;52.612;13.300;2022-10-16T01:54:59;15.80;99.90
18797;DHT22;9526;52.612;13.300;2022-10-16T01:57:25;15.80;99.90
18797;DHT22;9526;52.612;13.300;2022-10-16T01:59:54;15.80;99.90
18797;DHT22;9526;52.612;13.300;2022-10-16T02:02:20;15.90;99.90
18797;DHT22;9526;52.612;13.300;2022-10-16T02:04:48;15.80;99.90
18797;DHT22;9526;52.612;13.300;2022-10-16T02:07:14;15.80;99.90
18797;DHT22;9526;52.612;13.300;2022-10-16T02:09:38;15.80;99.90
18797;DHT22;9526;52.612;13.300;2022-10-16T02:12:08;15.80;99.90
18797;DHT22;9526;52.612;13.300;2022-10-16T02:14:38;15.80;99.90
18797;DHT22;9526;52.612;13.300;2022-10-16T02:17:11;15.80;99.90
18797;DHT22;9526;52.612;13.300;2022-10-16T02:19:36;15.80;99.90
18797;DHT22;9526;52.612;13.300;2022-10-16T02:22:06;15.80;99.90
18797;DHT22;9526;52.612;13.300;2022-10-16T02:24:35;15.80;99.90
18797;DHT22;9526;52.612;13.300;2022-10-16T02:27:07;15.80;99.90
18797;DHT22;9526;52.612;13.300;2022-10-16T02:29:38;15.80;99.90
18797;DHT22;9526;52.612;13.300;2022-10-16T02:32:09;15.80;99.90
18797;DHT22;9526;52.612;13.300;2022-10-16T02:34:34;15.80;99.90
18797;DHT22;9526;52.612;13.300;2022-10-16T02:36:59;15.80;99.90
18797;DHT22;9526;52.612;13.300;2022-10-16T02:39:26;15.80;99.90
18797;DHT22;9526;52.612;13.300;2022-10-16T02:41:50;15.90;99.90
18797;DHT22;9526;52.612;13.300;2022-10-16T02:44:14;15.80;99.90
18797;DHT22;9526;52.612;13.300;2022-10-16T02:46:37;15.80;99.90
18797;DHT22;9526;52.612;13.300;2022-10-16T02:49:02;15.80;99.90
18797;DHT22;9526;52.612;13.300;2022-10-16T02:51:26;15.90;99.90
18797;DHT22;9526;52.612;13.300;2022-10-16T02:53:50;15.90;99.90
18797;DHT22;9526;52.612;13.300;2022-10-16T02:56:13;15.80;99.90
18797;DHT22;9526;52.612;13.300;2022-10-16T02:58:37;15.80;99.90
18797;DHT22;9526;52.612;13.300;2022-10-16T03:01:01;15.90;99.90
18797;DHT22;9526;52.612;13.300;2022-10-16T03:03:24;15.80;99.90
18797;DHT22;9526;52.612;13.300;2022-10-16T03:05:50;15.80;99.90
18797;DHT22;9526;52.612;13.300;2022-10-16T03:08:14;15.80;99.90
18797;DHT22;9526;52.612;13.300;2022-10-16T03:10:38;15.80;99.90
18797;DHT22;9526;52.612;13.300;2022-10-16T03:13:01;15.80;99.90
18797;DHT22;9526;52.612;13.300;2022-10-16T03:15:25;15.80;99.90
18797;DHT22;9526;52.612;13.300;2022-10-16T03:17:50;15.70;99.90
18797;DHT22;9526;52.612;13.300;2022-10-16T03:20:13;15.70;99.90
18797;DHT22;9526;52.612;13.300;2022-10-16T03:22:38;15.70;99.90
18797;DHT22;9526;52.612;13.300;2022-10-16T03:25:02;15.70;99.90
18797;DHT22;9526;52.612;13.300;2022-10-16T03:27:26;15.70;99.90
18797;DHT22;9526;52.612;13.300;2022-10-16T03:29:51;15.60;99.90
18797;DHT22;9526;52.612;13.300;2022-10-16T03:32:14;15.60;99.90
18797;DHT22;9526;52.612;13.300;2022-10-16T03:34:38;15.50;99.90
18797;DHT22;9526;52.612;13.300;2022-10-16T03:37:02;15.60;99.90
18797;DHT22;9526;52.612;13.300;2022-10-16T03:39:27;15.50;99.90
18797;DHT22;9526;52.612;13.300;2022-10-16T03:41:50;15.40;99.90
18797;DHT22;9526;52.612;13.300;2022-10-16T03:44:14;15.40;99.90
18797;DHT22;9526;52.612;13.300;2022-10-16T03:46:38;15.30;99.90
18797;DHT22;9526;52.612;13.300;2022-10-16T03:49:01;15.40;99.90
18797;DHT22;9526;52.612;13.300;2022-10-16T03:51:29;15.30;99.90
18797;DHT22;9526;52.612;13.300;2022-10-16T03:53:53;15.30;99.90
18797;DHT22;9526;52.612;13.300;2022-10-16T03:56:18;15.30;99.90
18797;DHT22;9526;52.612;13.300;2022-10-16T03:58:42;15.30;99.90
18797;DHT22;9526;52.612;13.300;2022-10-16T04:01:05;15.20;99.90
18797;DHT22;9526;52.612;13.300;2022-10-16T04:03:29;15.20;99.90
18797;DHT22;9526;52.612;13.300;2022-10-16T04:05:53;15.20;99.90
18797;DHT22;9526;52.612;13.300;2022-10-16T04:08:16;15.20;99.90
18797;DHT22;9526;52.612;13.300;2022-10-16T04:10:41;15.20;99.90
18797;DHT22;9526;52.612;13.300;2022-10-16T04:13:07;15.20;99.90
18797;DHT22;9526;52.612;13.300;2022-10-16T04:15:30;15.20;99.90
18797;DHT22;9526;52.612;13.300;2022-10-16T04:17:54;15.20;99.90
18797;DHT22;9526;52.612;13.300;2022-10-16T04:20:17;15.10;99.90
18797;DHT22;9526;52.612;13.300;2022-10-16T04:22:41;15.10;99.90
18797;DHT22;9526;52.612;13.300;2022-10-16T04:25:05;15.10;99.90
18797;DHT22;9526;52.612;13.300;2022-10-16T04:27:29;15.00;99.90
18797;DHT22;9526;52.612;13.300;2022-10-16T04:29:54;15.00;99.90
18797;DHT22;9526;52.612;13.300;2022-10-16T04:32:18;15.00;99.90
18797;DHT22;9526;52.612;13.300;2022-10-16T04:34:41;15.00;99.90
18797;DHT22;9526;52.612;13.300;2022-10-16T04:37:05;15.00;99.90
18797;DHT22;9526;52.612;13.300;2022-10-16T04:39:28;14.90;99.90
18797;DHT22;9526;52.612;13.300;2022-10-16T04:41:52;14.90;99.90
18797;DHT22;9526;52.612;13.300;2022-10-16T04:44:16;14.90;99.90
18797;DHT22;9526;52.612;13.300;2022-10-16T04:46:40;14.80;99.90
18797;DHT22;9526;52.612;13.300;2022-10-16T04:49:04;14.80;99.90
18797;DHT22;9526;52.612;13.300;2022-10-16T04:51:28;14.70;99.90
18797;DHT22;9526;52.612;13.300;2022-10-16T04:53:52;14.70;99.90
18797;DHT22;9526;52.612;13.300;2022-10-16T04:56:16;14.60;99.90
18797;DHT22;9526;52.612;13.300;2022-10-16T04:58:39;14.70;99.90
18797;DHT22;9526;52.612;13.300;2022-10-16T05:01:03;14.60;99.90
18797;DHT22;9526;52.612;13.300;2022-10-16T05:03:28;14.60;99.90
18797;DHT22;9526;52.612;13.300;2022-10-16T05:05:57;14.60;99.90
18797;DHT22;9526;52.612;13.300;2022-10-16T05:08:20;14.50;99.90
18797;DHT22;9526;52.612;13.300;2022-10-16T05:10:45;14.50;99.90
18797;DHT22;9526;52.612;13.300;2022-10-16T05:13:08;14.50;99.90
18797;DHT22;9526;52.612;13.300;2022-10-16T05:15:32;14.40;99.90
18797;DHT22;9526;52.612;13.300;2022-10-16T05:17:56;14.40;99.90
18797;DHT22;9526;52.612;13.300;2022-10-16T05:20:21;14.40;99.90
18797;DHT22;9526;52.612;13.300;2022-10-16T05:22:45;14.30;99.90
18797;DHT22;9526;52.612;13.300;2022-10-16T05:25:09;14.30;99.90
18797;DHT22;9526;52.612;13.300;2022-10-16T05:27:32;14.30;99.90
18797;DHT22;9526;52.612;13.300;2022-10-16T05:29:56;14.20;99.90
18797;DHT22;9526;52.612;13.300;2022-10-16T05:32:19;14.20;99.90
18797;DHT22;9526;52.612;13.300;2022-10-16T05:34:43;14.20;99.90
18797;DHT22;9526;52.612;13.300;2022-10-16T05:37:09;14.20;99.90
18797;DHT22;9526;52.612;13.300;2022-10-16T05:39:33;14.20;99.90
18797;DHT22;9526;52.612;13.300;2022-10-16T05:41:58;14.20;99.90
18797;DHT22;9526;52.612;13.300;2022-10-16T05:44:22;14.10;99.90
18797;DHT22;9526;52.612;13.300;2022-10-16T05:46:46;14.10;99.90
18797;DHT22;9526;52.612;13.300;2022-10-16T05:49:09;14.20;99.90
18797;DHT22;9526;52.612;13.300;2022-10-16T05:51:33;14.20;99.90
18797;DHT22;9526;52.612;13.300;2022-10-16T05:53:58;14.20;99.90
18797;DHT22;9526;52.612;13.300;2022-10-16T05:56:21;14.20;99.90
18797;DHT22;9526;52.612;13.300;2022-10-16T05:58:45;14.20;99.90
18797;DHT22;9526;52.612;13.300;2022-10-16T06:01:11;14.20;99.90
18797;DHT22;9526;52.612;13.300;2022-10-16T06:03:35;14.20;99.90
18797;DHT22;9526;52.612;13.300;2022-10-16T06:05:59;14.30;99.90
18797;DHT22;9526;52.612;13.300;2022-10-16T06:08:33;14.30;99.90
18797;DHT22;9526;52.612;13.300;2022-10-16T06:11:05;14.30;99.90
18797;DHT22;9526;52.612;13.300;2022-10-16T06:13:30;14.40;99.90
18797;DHT22;9526;52.612;13.300;2022-10-16T06:15:56;14.40;99.90
18797;DHT22;9526;52.612;13.300;2022-10-16T06:18:20;14.40;99.90
18797;DHT22;9526;52.612;13.300;2022-10-16T06:20:43;14.50;99.90
18797;DHT22;9526;52.612;13.300;2022-10-16T06:23:07;14.60;99.90
18797;DHT22;9526;52.612;13.300;2022-10-16T06:25:31;14.60;99.90
18797;DHT22;9526;52.612;13.300;2022-10-16T06:27:56;14.70;99.90
18797;DHT22;9526;52.612;13.300;2022-10-16T06:30:20;14.70;99.90
18797;DHT22;9526;52.612;13.300;2022-10-16T06:32:43;14.80;99.90
18797;DHT22;9526;52.612;13.300;2022-10-16T06:35:07;14.80;99.90
18797;DHT22;9526;52.612;13.300;2022-10-16T06:37:31;14.90;99.90
18797;DHT22;9526;52.612;13.300;2022-10-16T06:39:55;14.90;99.90
18797;DHT22;9526;52.612;13.300;2022-10-16T06:42:18;15.00;99.90
18797;DHT22;9526;52.612;13.300;2022-10-16T06:44:44;15.00;99.90
18797;DHT22;9526;52.612;13.300;2022-10-16T06:47:07;15.10;99.90
18797;DHT22;9526;52.612;13.300;2022-10-16T06:49:31;15.20;99.90
18797;DHT22;9526;52.612;13.300;2022-10-16T06:51:54;15.30;99.90
18797;DHT22;9526;52.612;13.300;2022-10-16T06:54:18;15.40;99.90
18797;DHT22;9526;52.612;13.300;2022-10-16T06:56:41;15.40;99.90
18797;DHT22;9526;52.612;13.300;2022-10-16T06:59:05;15.50;99.90
18797;DHT22;9526;52.612;13.300;2022-10-16T07:01:30;15.60;99.90
18797;DHT22;9526;52.612;13.300;2022-10-16T07:03:54;15.60;99.90
18797;DHT22;9526;52.612;13.300;2022-10-16T07:06:20;15.70;99.90
18797;DHT22;9526;52.612;13.300;2022-10-16T07:08:46;15.70;99.90
18797;DHT22;9526;52.612;13.300;2022-10-16T07:11:11;15.80;99.90
18797;DHT22;9526;52.612;13.300;2022-10-16T07:13:36;15.80;99.90
18797;DHT22;9526;52.612;13.300;2022-10-16T07:16:04;15.80;99.90
18797;DHT22;9526;52.612;13.300;2022-10-16T07:18:30;15.90;99.90
18797;DHT22;9526;52.612;13.300;2022-10-16T07:21:03;15.90;99.90
18797;DHT22;9526;52.612;13.300;2022-10-16T07:23:27;16.00;99.90
18797;DHT22;9526;52.612;13.300;2022-10-16T07:25:54;16.00;99.90
18797;DHT22;9526;52.612;13.300;2022-10-16T07:28:18;16.10;99.90
18797;DHT22;9526;52.612;13.300;2022-10-16T07:30:41;16.10;99.90
18797;DHT22;9526;52.612;13.300;2022-10-16T07:33:05;16.20;99.90
18797;DHT22;9526;52.612;13.300;2022-10-16T07:35:30;16.20;99.90
18797;DHT22;9526;52.612;13.300;2022-10-16T07:37:54;16.30;99.90
18797;DHT22;9526;52.612;13.300;2022-10-16T07:40:17;16.40;99.90
18797;DHT22;9526;52.612;13.300;2022-10-16T07:42:41;16.40;99.90
18797;DHT22;9526;52.612;13.300;2022-10-16T07:45:06;16.50;99.90
18797;DHT22;9526;52.612;13.300;2022-10-16T07:47:30;16.60;99.90
18797;DHT22;9526;52.612;13.300;2022-10-16T07:49:54;16.60;99.90
18797;DHT22;9526;52.612;13.300;2022-10-16T07:52:19;16.70;99.90
18797;DHT22;9526;52.612;13.300;2022-10-16T07:54:43;16.80;99.90
18797;DHT22;9526;52.612;13.300;2022-10-16T07:57:06;16.80;99.90
18797;DHT22;9526;52.612;13.300;2022-10-16T07:59:30;16.80;99.90
18797;DHT22;9526;52.612;13.300;2022-10-16T08:01:54;16.90;99.90
18797;DHT22;9526;52.612;13.300;2022-10-16T08:04:18;16.90;99.90
18797;DHT22;9526;52.612;13.300;2022-10-16T08:06:42;17.00;99.90
18797;DHT22;9526;52.612;13.300;2022-10-16T08:09:07;17.00;99.90
18797;DHT22;9526;52.612;13.300;2022-10-16T08:11:31;17.10;99.90
18797;DHT22;9526;52.612;13.300;2022-10-16T08:13:55;17.00;99.90
18797;DHT22;9526;52.612;13.300;2022-10-16T08:16:19;17.10;99.90
18797;DHT22;9526;52.612;13.300;2022-10-16T08:18:42;17.10;99.90
18797;DHT22;9526;52.612;13.300;2022-10-16T08:21:07;17.10;99.90
18797;DHT22;9526;52.612;13.300;2022-10-16T08:23:42;17.10;99.90
18797;DHT22;9526;52.612;13.300;2022-10-16T08:26:08;17.10;99.90
18797;DHT22;9526;52.612;13.300;2022-10-16T08:28:32;17.10;99.90
18797;DHT22;9526;52.612;13.300;2022-10-16T08:30:55;17.10;99.90
18797;DHT22;9526;52.612;13.300;2022-10-16T08:33:19;17.20;99.90
18797;DHT22;9526;52.612;13.300;2022-10-16T08:35:43;17.20;99.90
18797;DHT22;9526;52.612;13.300;2022-10-16T08:38:14;17.30;99.90
18797;DHT22;9526;52.612;13.300;2022-10-16T08:40:38;17.30;99.90
18797;DHT22;9526;52.612;13.300;2022-10-16T08:43:17;17.30;99.90
18797;DHT22;9526;52.612;13.300;2022-10-16T08:46:05;17.30;99.90
18797;DHT22;9526;52.612;13.300;2022-10-16T08:48:44;17.30;99.90
18797;DHT22;9526;52.612;13.300;2022-10-16T08:51:20;17.30;99.90
18797;DHT22;9526;52.612;13.300;2022-10-16T08:53:50;17.30;99.90
18797;DHT22;9526;52.612;13.300;2022-10-16T08:56:15;17.40;99.90
18797;DHT22;9526;52.612;13.300;2022-10-16T08:58:42;17.50;99.90
18797;DHT22;9526;52.612;13.300;2022-10-16T09:01:12;17.60;99.90
18797;DHT22;9526;52.612;13.300;2022-10-16T09:06:43;17.90;99.90
18797;DHT22;9526;52.612;13.300;2022-10-16T09:09:25;18.00;99.90
18797;DHT22;9526;52.612;13.300;2022-10-16T09:12:00;18.20;99.90
18797;DHT22;9526;52.612;13.300;2022-10-16T09:14:39;18.30;99.90
18797;DHT22;9526;52.612;13.300;2022-10-16T09:17:20;18.50;99.90
18797;DHT22;9526;52.612;13.300;2022-10-16T09:19:53;18.50;99.90
18797;DHT22;9526;52.612;13.300;2022-10-16T09:22:21;18.60;99.90
18797;DHT22;9526;52.612;13.300;2022-10-16T09:24:50;18.70;99.90
18797;DHT22;9526;52.612;13.300;2022-10-16T09:27:14;18.70;99.90
18797;DHT22;9526;52.612;13.300;2022-10-16T09:29:40;18.80;99.90
18797;DHT22;9526;52.612;13.300;2022-10-16T09:32:12;18.80;99.90
18797;DHT22;9526;52.612;13.300;2022-10-16T09:34:42;19.00;99.90
18797;DHT22;9526;52.612;13.300;2022-10-16T09:37:11;18.90;99.90
18797;DHT22;9526;52.612;13.300;2022-10-16T09:39:44;19.00;99.90
18797;DHT22;9526;52.612;13.300;2022-10-16T09:42:10;19.00;99.90
18797;DHT22;9526;52.612;13.300;2022-10-16T09:44:36;19.10;99.90
18797;DHT22;9526;52.612;13.300;2022-10-16T09:47:14;19.30;99.90
18797;DHT22;9526;52.612;13.300;2022-10-16T09:49:50;19.30;99.90
18797;DHT22;9526;52.612;13.300;2022-10-16T09:52:15;19.50;99.90
18797;DHT22;9526;52.612;13.300;2022-10-16T09:54:49;19.50;99.90
18797;DHT22;9526;52.612;13.300;2022-10-16T09:57:14;19.50;99.90
18797;DHT22;9526;52.612;13.300;2022-10-16T09:59:47;19.70;99.90
18797;DHT22;9526;52.612;13.300;2022-10-16T10:02:14;19.90;99.90
18797;DHT22;9526;52.612;13.300;2022-10-16T10:04:41;20.10;99.90
18797;DHT22;9526;52.612;13.300;2022-10-16T10:07:17;20.00;99.90
18797;DHT22;9526;52.612;13.300;2022-10-16T10:09:44;20.00;99.90
18797;DHT22;9526;52.612;13.300;2022-10-16T10:12:18;19.90;99.90
18797;DHT22;9526;52.612;13.300;2022-10-16T10:14:50;19.80;99.90
18797;DHT22;9526;52.612;13.300;2022-10-16T10:17:17;19.70;99.90
18797;DHT22;9526;52.612;13.300;2022-10-16T10:19:46;19.70;99.90
18797;DHT22;9526;52.612;13.300;2022-10-16T10:28:22;19.90;99.90
18797;DHT22;9526;52.612;13.300;2022-10-16T10:30:57;20.20;99.90
18797;DHT22;9526;52.612;13.300;2022-10-16T10:33:30;20.20;99.90
18797;DHT22;9526;52.612;13.300;2022-10-16T10:36:09;20.20;99.90
18797;DHT22;9526;52.612;13.300;2022-10-16T10:38:44;20.30;99.90
18797;DHT22;9526;52.612;13.300;2022-10-16T10:45:01;20.60;99.90
18797;DHT22;9526;52.612;13.300;2022-10-16T10:47:43;20.50;99.90
18797;DHT22;9526;52.612;13.300;2022-10-16T10:50:18;20.70;99.90
18797;DHT22;9526;52.612;13.300;2022-10-16T10:52:56;20.80;99.90
18797;DHT22;9526;52.612;13.300;2022-10-16T10:55:28;20.90;99.90
18797;DHT22;9526;52.612;13.300;2022-10-16T10:58:07;20.70;99.90
18797;DHT22;9526;52.612;13.300;2022-10-16T11:00:46;20.60;99.90
18797;DHT22;9526;52.612;13.300;2022-10-16T11:03:27;20.40;99.90
18797;DHT22;9526;52.612;13.300;2022-10-16T11:06:00;20.30;99.90
18797;DHT22;9526;52.612;13.300;2022-10-16T11:08:33;20.30;99.90
18797;DHT22;9526;52.612;13.300;2022-10-16T11:11:01;20.20;99.90
18797;DHT22;9526;52.612;13.300;2022-10-16T11:13:31;20.10;99.90
18797;DHT22;9526;52.612;13.300;2022-10-16T11:15:59;20.10;99.90
18797;DHT22;9526;52.612;13.300;2022-10-16T11:18:33;20.00;99.90
18797;DHT22;9526;52.612;13.300;2022-10-16T11:21:08;20.00;99.90
18797;DHT22;9526;52.612;13.300;2022-10-16T11:23:39;20.10;99.90
18797;DHT22;9526;52.612;13.300;2022-10-16T11:26:11;20.20;99.90
18797;DHT22;9526;52.612;13.300;2022-10-16T11:28:42;20.10;99.90
18797;DHT22;9526;52.612;13.300;2022-10-16T11:31:13;20.10;99.90
18797;DHT22;9526;52.612;13.300;2022-10-16T11:33:44;20.30;99.90
18797;DHT22;9526;52.612;13.300;2022-10-16T11:36:14;20.50;99.90
18797;DHT22;9526;52.612;13.300;2022-10-16T11:38:45;20.70;99.90
18797;DHT22;9526;52.612;13.300;2022-10-16T11:41:18;20.80;99.90
18797;DHT22;9526;52.612;13.300;2022-10-16T11:43:50;21.00;99.90
18797;DHT22;9526;52.612;13.300;2022-10-16T11:46:23;21.10;99.90
18797;DHT22;9526;52.612;13.300;2022-10-16T11:48:51;21.00;99.90
18797;DHT22;9526;52.612;13.300;2022-10-16T11:51:24;21.10;99.90
18797;DHT22;9526;52.612;13.300;2022-10-16T11:53:55;20.90;99.90
18797;DHT22;9526;52.612;13.300;2022-10-16T11:56:22;21.00;99.90
18797;DHT22;9526;52.612;13.300;2022-10-16T11:58:52;21.00;99.90
18797;DHT22;9526;52.612;13.300;2022-10-16T12:01:22;21.20;99.90
18797;DHT22;9526;52.612;13.300;2022-10-16T12:04:06;21.40;99.90
18797;DHT22;9526;52.612;13.300;2022-10-16T12:06:41;21.50;99.90
18797;DHT22;9526;52.612;13.300;2022-10-16T12:09:13;21.30;99.90
18797;DHT22;9526;52.612;13.300;2022-10-16T12:11:39;21.20;99.90
18797;DHT22;9526;52.612;13.300;2022-10-16T12:14:34;21.00;99.90
18797;DHT22;9526;52.612;13.300;2022-10-16T12:17:25;20.80;99.90
18797;DHT22;9526;52.612;13.300;2022-10-16T12:19:59;20.80;99.90
18797;DHT22;9526;52.612;13.300;2022-10-16T12:22:24;20.80;99.90
18797;DHT22;9526;52.612;13.300;2022-10-16T12:24:51;20.80;99.90
18797;DHT22;9526;52.612;13.300;2022-10-16T12:27:24;20.90;99.90
18797;DHT22;9526;52.612;13.300;2022-10-16T12:29:55;20.80;99.90
18797;DHT22;9526;52.612;13.300;2022-10-16T12:32:27;20.80;99.90
18797;DHT22;9526;52.612;13.300;2022-10-16T12:35:20;20.80;99.90
18797;DHT22;9526;52.612;13.300;2022-10-16T12:37:45;20.70;99.90
18797;DHT22;9526;52.612;13.300;2022-10-16T12:40:13;20.60;99.90
18797;DHT22;9526;52.612;13.300;2022-10-16T12:42:39;20.60;99.90
18797;DHT22;9526;52.612;13.300;2022-10-16T12:45:22;20.60;99.90
18797;DHT22;9526;52.612;13.300;2022-10-16T12:47:49;20.50;99.90
18797;DHT22;9526;52.612;13.300;2022-10-16T12:50:29;20.50;99.90
18797;DHT22;9526;52.612;13.300;2022-10-16T12:52:54;20.50;99.90
18797;DHT22;9526;52.612;13.300;2022-10-16T12:55:20;20.50;99.90
18797;DHT22;9526;52.612;13.300;2022-10-16T12:57:59;20.50;99.90
18797;DHT22;9526;52.612;13.300;2022-10-16T13:00:35;20.50;99.90
18797;DHT22;9526;52.612;13.300;2022-10-16T13:03:48;20.50;99.90
18797;DHT22;9526;52.612;13.300;2022-10-16T13:06:39;20.50;99.90
18797;DHT22;9526;52.612;13.300;2022-10-16T13:09:27;20.30;99.90
18797;DHT22;9526;52.612;13.300;2022-10-16T13:12:39;20.30;99.90
18797;DHT22;9526;52.612;13.300;2022-10-16T13:15:28;20.40;99.90
18797;DHT22;9526;52.612;13.300;2022-10-16T13:18:04;20.30;99.90
18797;DHT22;9526;52.612;13.300;2022-10-16T13:20:34;20.20;99.90
18797;DHT22;9526;52.612;13.300;2022-10-16T13:23:10;20.20;99.90
18797;DHT22;9526;52.612;13.300;2022-10-16T13:25:47;20.20;99.90
18797;DHT22;9526;52.612;13.300;2022-10-16T13:28:26;20.10;99.90
18797;DHT22;9526;52.612;13.300;2022-10-16T13:30:52;20.00;99.90
18797;DHT22;9526;52.612;13.300;2022-10-16T13:33:20;20.00;99.90
18797;DHT22;9526;52.612;13.300;2022-10-16T13:35:49;20.00;99.90
18797;DHT22;9526;52.612;13.300;2022-10-16T13:38:17;20.00;99.90
18797;DHT22;9526;52.612;13.300;2022-10-16T13:40:50;20.00;99.90
18797;DHT22;9526;52.612;13.300;2022-10-16T13:43:16;20.10;99.90
18797;DHT22;9526;52.612;13.300;2022-10-16T13:45:40;20.20;99.90
18797;DHT22;9526;52.612;13.300;2022-10-16T13:48:05;20.20;99.90
18797;DHT22;9526;52.612;13.300;2022-10-16T13:50:29;20.30;99.90
18797;DHT22;9526;52.612;13.300;2022-10-16T13:53:03;20.30;99.90
18797;DHT22;9526;52.612;13.300;2022-10-16T13:55:29;20.30;99.90
18797;DHT22;9526;52.612;13.300;2022-10-16T13:58:04;20.30;99.90
18797;DHT22;9526;52.612;13.300;2022-10-16T14:00:29;20.30;99.90
18797;DHT22;9526;52.612;13.300;2022-10-16T14:02:58;20.30;99.90
18797;DHT22;9526;52.612;13.300;2022-10-16T14:05:24;20.20;99.90
18797;DHT22;9526;52.612;13.300;2022-10-16T14:07:49;20.20;99.90
18797;DHT22;9526;52.612;13.300;2022-10-16T14:10:22;20.20;99.90
18797;DHT22;9526;52.612;13.300;2022-10-16T14:12:54;20.20;99.90
18797;DHT22;9526;52.612;13.300;2022-10-16T14:15:19;20.10;99.90
18797;DHT22;9526;52.612;13.300;2022-10-16T14:17:45;20.10;99.90
18797;DHT22;9526;52.612;13.300;2022-10-16T14:20:14;20.10;99.90
18797;DHT22;9526;52.612;13.300;2022-10-16T14:22:40;20.10;99.90
18797;DHT22;9526;52.612;13.300;2022-10-16T14:25:29;20.00;99.90
18797;DHT22;9526;52.612;13.300;2022-10-16T14:28:00;19.90;99.90
18797;DHT22;9526;52.612;13.300;2022-10-16T14:30:26;19.90;99.90
18797;DHT22;9526;52.612;13.300;2022-10-16T14:32:54;19.90;99.90
18797;DHT22;9526;52.612;13.300;2022-10-16T14:35:25;19.90;99.90
18797;DHT22;9526;52.612;13.300;2022-10-16T14:37:52;19.90;99.90
18797;DHT22;9526;52.612;13.300;2022-10-16T14:40:16;19.80;99.90
18797;DHT22;9526;52.612;13.300;2022-10-16T14:42:43;19.80;99.90
18797;DHT22;9526;52.612;13.300;2022-10-16T14:45:10;19.80;99.90
18797;DHT22;9526;52.612;13.300;2022-10-16T14:47:33;19.70;99.90
18797;DHT22;9526;52.612;13.300;2022-10-16T14:49:58;19.70;99.90
18797;DHT22;9526;52.612;13.300;2022-10-16T14:52:21;19.70;99.90
18797;DHT22;9526;52.612;13.300;2022-10-16T14:54:48;19.60;99.90
18797;DHT22;9526;52.612;13.300;2022-10-16T14:57:17;19.60;99.90
18797;DHT22;9526;52.612;13.300;2022-10-16T14:59:42;19.60;99.90
18797;DHT22;9526;52.612;13.300;2022-10-16T15:02:18;19.50;99.90
18797;DHT22;9526;52.612;13.300;2022-10-16T15:04:46;19.50;99.90
18797;DHT22;9526;52.612;13.300;2022-10-16T15:07:10;19.40;99.90
18797;DHT22;9526;52.612;13.300;2022-10-16T15:09:33;19.40;99.90
18797;DHT22;9526;52.612;13.300;2022-10-16T15:11:57;19.30;99.90
18797;DHT22;9526;52.612;13.300;2022-10-16T15:14:21;19.20;99.90
18797;DHT22;9526;52.612;13.300;2022-10-16T15:16:44;19.20;99.90
18797;DHT22;9526;52.612;13.300;2022-10-16T15:19:09;19.20;99.90
18797;DHT22;9526;52.612;13.300;2022-10-16T15:21:33;19.10;99.90
18797;DHT22;9526;52.612;13.300;2022-10-16T15:23:58;19.10;99.90
18797;DHT22;9526;52.612;13.300;2022-10-16T15:26:22;19.00;99.90
18797;DHT22;9526;52.612;13.300;2022-10-16T15:28:46;19.00;99.90
18797;DHT22;9526;52.612;13.300;2022-10-16T15:31:10;18.90;99.90
18797;DHT22;9526;52.612;13.300;2022-10-16T15:33:33;18.80;99.90
18797;DHT22;9526;52.612;13.300;2022-10-16T15:36:02;18.80;99.90
18797;DHT22;9526;52.612;13.300;2022-10-16T15:38:28;18.70;99.90
18797;DHT22;9526;52.612;13.300;2022-10-16T15:40:51;18.70;99.90
18797;DHT22;9526;52.612;13.300;2022-10-16T15:43:15;18.60;99.90
18797;DHT22;9526;52.612;13.300;2022-10-16T15:45:39;18.60;99.90
18797;DHT22;9526;52.612;13.300;2022-10-16T15:48:03;18.50;99.90